Parks Crossroads, North Carolina
Current Conditions -  °F | °C
As of 10:35 PM on Sunday 23 Nov 2014 (Local Time) from K5W8 Reporting Station
Light Rain Light Rain  
Wind Chill: 62°   Ceiling: 2400
Heat Index: 62°   Visibility: 10mi
Dew Point: 62°   Wind: 8mph
Humidity: 98%   Direction: 160°SSE
Pressure: 29.78"   Gusts: 20mph
Location:  35.6832°N, 79.6174°W
Report Text: K5W8 240335Z AUTO 16007G17KT 10SM -RA SCT008 BKN024 OVC110 17/17 A2978 RMK AO2 T01680165
Loading
Personal Weather Stations






























Interactive Weather Map New forecast layout! Learn more

10-Day Weather Forecast

Advertisements
Track Severe Weather on mobile